Chichilianne (38) - D

Date : 22/04/2012
Distance : 2330,000 km

Place Nom Licence Catégorie Club Temps min/km CN à J-60 Points Différence Nouveau CN
1 DROIN Solène 17925 D16 4201RA 0:26:12 0'00 4634 5241 +607 4922
2 MOISSET Jacques 2328 H60 7403RA 0:27:05 0'00 4599 5070 +471 5031
3 DEVRIEUX Naïs 7672 D18 4203RA 0:27:45 0'00 5941 4948 -993 5649
4 MASCARELL Henri 8928 H60 6911RA 0:28:24 0'00 5673 4835 -838 5518
5 VIGIER Léo 22094 H14 4203RA 0:29:04 0'00 3194 4724 +1530 3435
6 BORNARD Nicolas 9403 H14 7305RA 0:29:49 0'00 3868 4605 +737 4023
7 LELOUP Anouk 8108 D18 7305RA 0:29:55 0'00 0 4590 0
8 BODY Mathilde 10184 D16 7305RA 0:30:01 0'00 5413 4575 -838 5048
9 FERRAND Antonin 23465 H14 4203RA 0:30:31 0'00 3486 4500 +1014 3628
10 RIVOLLIER Isaline 22451 D16 4201RA 0:32:07 0'00 3898 4275 +377 4252
11 BERRARD Tom 19761 H14 2607RA 0:33:58 0'00 3663 4043 +380 3705
12 GHIBAUDO Simon 20917 H14 4203RA 0:34:17 0'00 3526 4005 +479 3295
13 DUDOIGNON Chloé 18089 D14 2605RA 0:35:39 0'00 3187 3852 +665 3381
14 BORNARD Julie 9402 D16 7305RA 0:36:25 0'00 4337 3771 -566 4381
15 RAGACHE Jean-Claude 7147 H60 3811RA 0:38:00 0'00 4618 3613 -1005 4618
16 THIEVENAZ Roland 9230 H60 3811RA 0:38:06 0'00 4874 3604 -1270 4874
17 SINIBALDI Marc 1347 H70 3801RA 0:38:30 0'00 4507 3567 -940 3894
18 FALGA Beatrice 12403 D16 6911RA 0:40:14 0'01 3768 3413 -355 3628
19 MOREAU Merlin 19584 H14 2605RA 0:40:31 0'01 2681 3389 +708 2781
20 GANDON J-Claude 249 H70 6906RA 0:40:54 0'01 4190 3357 -833 4025
21 BASSET Juliette 12398 D14 6911RA 0:41:08 0'01 3674 3338 -336 3548
22 ANNE Roger 1673 H60 0111RA 0:41:17 0'01 4262 3326 -936 4171
23 ROCHE Maxime 15418 H14 6911RA 0:41:22 0'01 2808 3319 +511 2829
24 COMBET Annie 813 D50 4203RA 0:41:57 0'01 4353 3273 -1080 4370
25 DANJON J-Yves 8699 H60 6911RA 0:42:22 0'01 3241 3073
26 GENNARO Leslie 20863 D16 3811RA 0:46:18 0'01 2157 2966 +809 2665
27 LEVESY Salomé 23127 D14 3810RA 0:49:11 0'01 2568 2792 +224 2560
28 PERMINGEAT Helene 21054 D55 2606RA 0:49:29 0'01 3222 2775 -447 3222
29 BERLAND Julien 24057 H14 3809RA 0:50:03 0'01 2871 2744 -127 2889
30 MOISSET Nicole 2329 D55 7403RA 0:53:49 0'01 3360 2551 -809 2975
31 MASLIAH Raphaël 26389 H14 2610RA 0:55:04 0'01 2494 2394
32 PITAVAL Sylvie 12060 D50 4201RA 0:55:21 0'01 3820 2481 -1339 3725
33 XIMENEZ Michel 21360 H45 3801RA 0:55:27 0'01 2989 2476 -513 2906
34 ANNE Brigitte 1672 D60 0111RA 0:57:23 0'01 3257 2393 -864 3137
35 HABAUZIT Killian 23667 H14 2606RA 0:58:10 0'01 1765 2361 +596 1946
36 DESCOURVIERES Perrine 25550 D16 7407RA 1:00:25 0'01 2273 1827
37 CARBONNEAUX Théo 26415 H14 2610RA 1:00:46 0'01 2260 2162
38 BOUILLET Geneviève 8944 D60 3811RA 1:02:45 0'01 2282 2188 -94 2323
39 VILLEDIEU Martine 13752 D55 6913RA 1:03:24 0'01 3873 2166 -1707 3600
40 LENFANT Chantal 10264 D55 3811RA 1:03:39 0'01 3092 2157 -935 3092
41 GROSJEAN A-Marie 12059 D70 6913RA 1:03:59 0'01 2838 2146 -692 2749
42 JUILLAN Martine 9988 D14 3801RA 1:05:27 0'01 1389 2098 +709 1343
43 GIGON-VELUZAT Laurence 11316 D50 3809RA 1:07:22 0'01 2983 2038 -945 2502
44 PERREARD-GARIN Soraya 25343 D14 7407RA 1:08:02 0'01 1601 2018 +417 1894
45 LEBRUN Valérie 25215 D35 3810RA 1:08:48 0'01 0 1996 1825
46 ROCHAT Jodie 26125 D16 7407RA 1:08:58 0'01 1991 1730
47 LAURENT ELODIE 24671 D14 2606RA 1:10:05 0'01 1802 1959 +157 2047
48 GARON Perrine 21097 D14 2607RA 1:11:32 0'01 1623 1920 +297 1873
49 RYCKEBOER Alizé 20146 D14 8319AZ 1:11:43 0'01 2092 1915 -177 2136
50 ROMEY Emilie 26017 D21 3801RA 1:14:27 0'01 1844 1807
51 FINO Béatrice 1674 D40 0111RA 1:20:01 0'02 2538 1716 -822 2375
52 CATMUR virginia 25103 D55 0503PR 1:23:29 0'02 0 1645 1554
53 CHAREYRE Régis 25321 H14 2607RA 1:24:31 0'02 1625 1560
54 BENOIT Nathalie 18122 D35 2607RA 1:25:44 0'02 2048 1602 -446 2297
55 THIEVENAZ Francoise 19672 D60 3811RA 1:29:39 0'02 0 1532 1501
56 VORWERK Marine 25746 D14 4201RA 1:39:10 0'02 1385 1383
57 ANTOINE Brigitte 1271 D60 2605RA 1:53:43 0'02 0 1207 0
58 VORWERK Camille 25747 D14 4201RA 1:55:20 0'02 1191 1143
HELIOT Claude 2349 H70 6906RA pm None 3772 0 3025
ROBERT Francoise 6491 D60 6913RA pm None 4524 0 4030
BRUSSEY Marius 26257 H14 2606RA pm None 0 0
PERRON Lucas 20601 H14 3809RA pm None 915 0 973